createdAt,value
2022-12-24T00:00:39.720Z,33.20
2022-12-24T00:05:41.700Z,30.70
2022-12-24T00:10:44.276Z,20.40
2022-12-24T00:15:46.132Z,23.20
2022-12-24T00:20:48.924Z,23.50
2022-12-24T00:25:50.640Z,20.10
2022-12-24T00:30:52.607Z,20.50
2022-12-24T00:35:54.296Z,18.90
2022-12-24T00:41:01.880Z,21.40
2022-12-24T00:51:05.441Z,18.80
2022-12-24T00:56:08.038Z,15.50
2022-12-24T01:01:10.201Z,14.60
2022-12-24T01:06:18.099Z,15.30
2022-12-24T01:11:19.940Z,12.60
2022-12-24T01:16:21.771Z,11.70
2022-12-24T01:21:23.738Z,14.50
2022-12-24T01:26:25.455Z,16.20
2022-12-24T01:31:27.147Z,12.40
2022-12-24T01:36:28.974Z,11.20
2022-12-24T01:41:51.072Z,13.30
2022-12-24T01:47:14.428Z,12.30
2022-12-24T01:52:23.647Z,11.90
2022-12-24T01:57:30.026Z,12.50
2022-12-24T02:02:33.449Z,13.60
2022-12-24T02:07:36.415Z,15.20
2022-12-24T02:12:39.122Z,15.90
2022-12-24T02:17:56.867Z,16.20
2022-12-24T02:23:08.131Z,19.50
2022-12-24T02:28:38.330Z,17.50
2022-12-24T02:34:19.521Z,18.90
2022-12-24T02:39:27.374Z,18.00
2022-12-24T02:44:31.815Z,17.30
2022-12-24T02:49:33.516Z,15.00
2022-12-24T02:54:35.371Z,14.90
2022-12-24T02:59:58.982Z,16.00
2022-12-24T03:05:12.558Z,14.50
2022-12-24T03:10:31.336Z,13.70
2022-12-24T03:15:34.394Z,13.20
2022-12-24T03:20:44.250Z,12.50
2022-12-24T03:25:46.587Z,12.50
2022-12-24T03:30:48.826Z,14.40
2022-12-24T03:35:50.497Z,15.40
2022-12-24T03:40:52.511Z,15.10
2022-12-24T03:45:54.305Z,15.00
2022-12-24T03:50:56.153Z,17.10
2022-12-24T03:55:58.316Z,20.90
2022-12-24T04:00:59.974Z,15.80
2022-12-24T04:06:09.977Z,15.40
2022-12-24T04:11:14.186Z,15.90
2022-12-24T04:16:17.517Z,13.80
2022-12-24T04:21:19.540Z,21.80
2022-12-24T04:26:21.228Z,28.70
2022-12-24T04:31:23.357Z,22.20
2022-12-24T04:36:25.161Z,28.00
2022-12-24T04:41:26.913Z,23.40
2022-12-24T04:46:32.666Z,31.50
2022-12-24T04:51:34.395Z,32.10
2022-12-24T04:56:37.037Z,38.50
2022-12-24T05:01:38.832Z,37.20
2022-12-24T05:06:40.663Z,33.10
2022-12-24T05:11:42.341Z,31.60
2022-12-24T05:16:44.296Z,21.30
2022-12-24T05:22:06.153Z,26.90
2022-12-24T05:27:08.039Z,23.50
2022-12-24T05:32:09.681Z,20.80
2022-12-24T05:37:11.366Z,26.80
2022-12-24T05:42:13.073Z,18.70
2022-12-24T05:47:14.887Z,19.40
2022-12-24T05:52:16.676Z,26.70
2022-12-24T05:57:18.329Z,31.50
2022-12-24T06:02:19.998Z,30.50
2022-12-24T06:07:21.673Z,23.80
2022-12-24T06:12:23.842Z,18.40
2022-12-24T06:17:25.536Z,26.20
2022-12-24T06:22:27.442Z,22.70
2022-12-24T06:27:29.134Z,20.80
2022-12-24T06:32:30.990Z,19.30
2022-12-24T06:37:32.723Z,16.20
2022-12-24T06:42:34.346Z,17.30
2022-12-24T06:47:36.317Z,16.00
2022-12-24T06:52:38.588Z,18.30
2022-12-24T06:57:40.290Z,17.50
2022-12-24T07:02:43.419Z,17.80
2022-12-24T07:07:45.534Z,18.90
2022-12-24T07:12:48.138Z,32.30
2022-12-24T07:17:49.836Z,57.00
2022-12-24T07:22:51.602Z,46.70
2022-12-24T07:27:53.323Z,61.40
2022-12-24T07:32:55.002Z,54.60
2022-12-24T07:37:56.778Z,35.70
2022-12-24T07:42:58.491Z,38.10
2022-12-24T07:48:00.194Z,31.70
2022-12-24T07:53:01.848Z,21.70
2022-12-24T07:58:03.518Z,27.40
2022-12-24T08:03:05.661Z,24.60
2022-12-24T08:08:07.693Z,20.30
2022-12-24T08:13:09.604Z,24.60
2022-12-24T08:18:11.897Z,21.00
2022-12-24T08:23:14.316Z,18.10
2022-12-24T08:28:19.318Z,21.60
2022-12-24T08:33:22.123Z,19.70
2022-12-24T08:38:24.366Z,19.10
2022-12-24T08:43:26.885Z,16.80
2022-12-24T08:48:28.567Z,20.10
2022-12-24T08:53:30.218Z,21.80
2022-12-24T08:58:32.298Z,14.90
2022-12-24T09:03:34.042Z,22.30
2022-12-24T09:08:36.623Z,17.00
2022-12-24T09:13:39.331Z,16.20
2022-12-24T09:18:41.761Z,14.20
2022-12-24T09:23:46.844Z,19.70
2022-12-24T09:28:49.075Z,15.80
2022-12-24T09:33:51.457Z,13.80
2022-12-24T09:38:53.378Z,9.40
2022-12-24T09:44:08.077Z,6.30
2022-12-24T09:49:22.328Z,5.50
2022-12-24T09:54:31.946Z,5.60
2022-12-24T09:59:43.980Z,5.90
2022-12-24T10:04:47.198Z,6.50
2022-12-24T10:10:18.033Z,6.00
2022-12-24T10:15:31.977Z,4.80
2022-12-24T10:21:16.553Z,6.70
2022-12-24T10:26:25.858Z,5.70
2022-12-24T10:31:32.134Z,6.10
2022-12-24T10:36:33.807Z,5.90
2022-12-24T10:41:36.781Z,4.60
2022-12-24T10:46:39.331Z,4.90
2022-12-24T10:51:55.713Z,5.10
2022-12-24T10:57:02.350Z,7.00
2022-12-24T11:02:04.330Z,5.10
2022-12-24T11:07:16.884Z,5.20
2022-12-24T11:12:23.556Z,5.70
2022-12-24T11:17:25.485Z,7.00
2022-12-24T11:22:30.746Z,7.50
2022-12-24T11:27:41.708Z,10.00
2022-12-24T11:32:46.050Z,7.20
2022-12-24T11:38:00.293Z,6.60
2022-12-24T11:43:03.859Z,7.00
2022-12-24T11:48:25.535Z,7.60
2022-12-24T11:53:36.273Z,7.50
2022-12-24T11:58:54.966Z,7.90
2022-12-24T12:04:10.869Z,5.30
2022-12-24T12:09:18.188Z,5.70
2022-12-24T12:14:30.302Z,4.50
2022-12-24T12:19:42.517Z,4.70
2022-12-24T12:24:50.947Z,4.70
2022-12-24T12:30:00.200Z,5.30
2022-12-24T12:35:15.761Z,5.00
2022-12-24T12:40:18.814Z,4.60
2022-12-24T12:45:43.290Z,7.20
2022-12-24T12:51:08.016Z,6.40
2022-12-24T12:56:30.319Z,6.10
2022-12-24T13:02:17.492Z,5.00
2022-12-24T13:07:37.502Z,6.80
2022-12-24T13:13:07.724Z,6.10
2022-12-24T13:18:34.349Z,7.00
2022-12-24T13:23:36.141Z,4.40
2022-12-24T13:28:38.725Z,4.40
2022-12-24T13:33:40.452Z,5.70
2022-12-24T13:38:52.528Z,5.00
2022-12-24T13:44:06.374Z,6.40
2022-12-24T13:49:17.754Z,6.10
2022-12-24T13:54:25.681Z,4.90
2022-12-24T13:59:38.983Z,6.80
2022-12-24T14:04:42.449Z,5.40
2022-12-24T14:09:50.220Z,6.20
2022-12-24T14:14:51.959Z,8.20
2022-12-24T14:20:02.464Z,7.10
2022-12-24T14:25:12.406Z,8.40
2022-12-24T14:30:19.638Z,7.90
2022-12-24T14:35:26.474Z,8.10
2022-12-24T14:40:30.949Z,7.00
2022-12-24T14:45:41.941Z,6.90
2022-12-24T14:50:59.761Z,7.10
2022-12-24T14:56:14.505Z,7.50
2022-12-24T15:01:24.401Z,7.30
2022-12-24T15:06:27.242Z,6.50
2022-12-24T15:11:29.383Z,6.10
2022-12-24T15:16:35.319Z,5.80
2022-12-24T15:21:44.005Z,7.40
2022-12-24T15:26:45.741Z,6.40
2022-12-24T15:31:53.446Z,7.50
2022-12-24T15:37:04.749Z,8.90
2022-12-24T15:42:15.077Z,9.40
2022-12-24T15:47:21.032Z,8.50
2022-12-24T15:52:24.977Z,8.80
2022-12-24T15:57:31.743Z,8.30
2022-12-24T16:02:40.699Z,8.30
2022-12-24T16:08:05.362Z,8.70
2022-12-24T16:13:23.702Z,8.70
2022-12-24T16:18:56.198Z,11.40
2022-12-24T16:24:06.347Z,14.70
2022-12-24T16:29:10.115Z,9.40
2022-12-24T16:34:17.228Z,11.70
2022-12-24T16:39:23.303Z,11.60
2022-12-24T16:44:25.003Z,9.60
2022-12-24T16:49:27.345Z,16.70
2022-12-24T16:54:30.122Z,15.10
2022-12-24T16:59:32.695Z,14.60
2022-12-24T17:04:35.162Z,11.20
2022-12-24T17:09:36.953Z,13.50
2022-12-24T17:14:39.761Z,15.50
2022-12-24T17:19:41.487Z,12.70
2022-12-24T17:24:44.056Z,12.10
2022-12-24T17:29:46.100Z,8.80
2022-12-24T17:34:47.783Z,8.00
2022-12-24T17:39:49.457Z,8.70
2022-12-24T17:44:51.191Z,15.70
2022-12-24T17:49:53.041Z,36.10
2022-12-24T17:54:54.968Z,18.90
2022-12-24T17:59:57.443Z,16.70
2022-12-24T18:04:59.320Z,19.30
2022-12-24T18:10:01.073Z,26.60
2022-12-24T18:15:02.803Z,27.10
2022-12-24T18:20:05.364Z,24.90
2022-12-24T18:25:07.667Z,27.00
2022-12-24T18:30:10.420Z,26.50
2022-12-24T18:35:12.247Z,23.80
2022-12-24T18:40:14.109Z,22.70
2022-12-24T18:45:15.951Z,23.90
2022-12-24T18:50:17.630Z,23.70
2022-12-24T18:55:19.301Z,27.30
2022-12-24T19:00:21.018Z,32.00
2022-12-24T19:05:22.824Z,36.20
2022-12-24T19:10:24.619Z,34.30
2022-12-24T19:15:30.806Z,39.90
2022-12-24T19:20:39.684Z,36.10
2022-12-24T19:25:41.396Z,42.00
2022-12-24T19:30:43.316Z,33.70
2022-12-24T19:35:45.081Z,34.90
2022-12-24T19:40:46.822Z,33.80
2022-12-24T19:45:48.566Z,34.40
2022-12-24T19:50:50.865Z,27.70
2022-12-24T19:55:52.730Z,27.40
2022-12-24T20:00:54.616Z,29.90
2022-12-24T20:05:56.376Z,36.90
2022-12-24T20:10:58.081Z,41.40
2022-12-24T20:16:05.775Z,72.20
2022-12-24T20:26:13.632Z,64.80
2022-12-24T20:31:21.773Z,55.30
2022-12-24T20:36:25.103Z,36.60
2022-12-24T20:41:29.019Z,31.20
2022-12-24T20:46:31.181Z,33.90
2022-12-24T20:51:33.035Z,25.80
2022-12-24T20:56:34.682Z,33.40
2022-12-24T21:01:36.452Z,23.90
2022-12-24T21:06:39.574Z,23.30
2022-12-24T21:11:50.180Z,15.70
2022-12-24T21:16:54.227Z,30.70
2022-12-24T21:21:55.995Z,17.00
2022-12-24T21:26:57.783Z,12.30
2022-12-24T21:31:59.491Z,23.50
2022-12-24T21:37:01.238Z,51.50
2022-12-24T21:42:03.255Z,17.60
2022-12-24T21:47:04.973Z,21.40
2022-12-24T21:52:06.672Z,20.80
2022-12-24T21:57:28.007Z,19.70
2022-12-24T22:02:29.862Z,32.60
2022-12-24T22:07:50.597Z,24.70
2022-12-24T22:13:00.261Z,34.60
2022-12-24T22:18:02.320Z,45.50
2022-12-24T22:23:04.278Z,45.30
2022-12-24T22:28:06.410Z,21.30
2022-12-24T22:33:09.733Z,17.70
2022-12-24T22:38:11.624Z,13.10
2022-12-24T22:43:13.277Z,12.90
2022-12-24T22:48:19.532Z,12.30
2022-12-24T22:53:21.470Z,17.20
2022-12-24T22:58:23.850Z,15.60
2022-12-24T23:03:26.237Z,16.10
2022-12-24T23:08:29.046Z,19.30
2022-12-24T23:13:49.534Z,56.90
2022-12-24T23:18:51.299Z,50.50
2022-12-24T23:23:53.461Z,31.10
2022-12-24T23:28:56.108Z,27.90
2022-12-24T23:33:57.891Z,26.80
2022-12-24T23:38:59.747Z,24.80
2022-12-24T23:44:01.555Z,25.90
2022-12-24T23:49:03.381Z,35.00
2022-12-24T23:54:05.074Z,30.30
2022-12-24T23:59:06.810Z,39.30
